Time;durP1;ratioP1;P1;durP2;ratioP2;P2;SDS_P1;SDS_P2;PMS_P1;PMS_P2;Temp;Humidity;BMP_temperature;BMP_pressure;BME280_temperature;BME280_humidity;BME280_pressure;Samples;Min_cycle;Max_cycle;Signal;HPM_P1;HPM_P2
2022/04/04 00:00:45;;;;;;;19.00;6.97;;;7.40;75.70;;;;;;5108314;27;20264;-59
2022/04/04 00:03:10;;;;;;;26.50;8.32;;;7.40;75.70;;;;;;5126820;27;20024;-60
2022/04/04 00:05:36;;;;;;;16.90;8.18;;;7.40;75.70;;;;;;5106280;27;20042;-60
2022/04/04 00:08:01;;;;;;;16.60;7.72;;;7.30;75.60;;;;;;5126435;27;20026;-60
2022/04/04 00:10:27;;;;;;;11.50;7.35;;;7.30;75.60;;;;;;5104811;27;20037;-60
2022/04/04 00:12:52;;;;;;;14.65;7.43;;;7.30;75.70;;;;;;5104634;27;20750;-59
2022/04/04 00:15:18;;;;;;;13.77;8.02;;;7.30;75.70;;;;;;5104312;27;20085;-60
2022/04/04 00:17:44;;;;;;;12.82;7.57;;;7.30;75.60;;;;;;5120466;27;20036;-59
2022/04/04 00:20:11;;;;;;;14.40;7.53;;;7.30;75.70;;;;;;5123606;27;20079;-60
2022/04/04 00:22:36;;;;;;;14.13;7.03;;;7.30;75.70;;;;;;5105098;27;20066;-60
2022/04/04 00:25:03;;;;;;;10.43;7.28;;;7.20;75.70;;;;;;5126470;27;20474;-60
2022/04/04 00:27:28;;;;;;;11.43;7.25;;;7.20;75.90;;;;;;5107030;27;20011;-60
2022/04/04 00:29:54;;;;;;;17.75;7.80;;;7.20;76.00;;;;;;5104999;27;20043;-59
2022/04/04 00:32:19;;;;;;;14.40;8.02;;;7.20;75.90;;;;;;5103730;27;20015;-59
2022/04/04 00:34:45;;;;;;;14.77;8.85;;;7.20;75.80;;;;;;5105264;27;20031;-60
2022/04/04 00:37:10;;;;;;;16.85;8.60;;;7.20;75.90;;;;;;5123664;27;20028;-60
2022/04/04 00:39:36;;;;;;;13.10;8.82;;;7.20;75.80;;;;;;5121666;27;20031;-60
2022/04/04 00:42:01;;;;;;;18.77;8.82;;;7.20;75.90;;;;;;5124752;27;20286;-59
2022/04/04 00:44:27;;;;;;;15.40;8.43;;;7.20;75.90;;;;;;5104220;27;20071;-59
2022/04/04 00:46:52;;;;;;;11.00;7.88;;;7.10;75.90;;;;;;5124382;27;20034;-59
2022/04/04 00:49:18;;;;;;;16.00;7.95;;;7.10;75.90;;;;;;5103892;27;20043;-60
2022/04/04 00:51:43;;;;;;;14.45;8.77;;;7.10;75.90;;;;;;5122164;27;20031;-59
2022/04/04 00:54:09;;;;;;;15.85;7.97;;;7.10;75.90;;;;;;5121464;27;20035;-60
2022/04/04 00:56:35;;;;;;;14.40;8.60;;;7.10;75.90;;;;;;5123335;27;20106;-59
2022/04/04 00:59:01;;;;;;;14.25;7.85;;;7.10;75.90;;;;;;5121379;27;20031;-59
2022/04/04 01:01:28;;;;;;;13.70;8.02;;;7.10;75.80;;;;;;5085459;27;20348;-60
2022/04/04 01:03:53;;;;;;;14.07;7.78;;;7.10;75.90;;;;;;5121198;27;20038;-60
2022/04/04 01:06:19;;;;;;;17.30;7.85;;;7.10;75.90;;;;;;5103728;27;20023;-60
2022/04/04 01:08:44;;;;;;;17.48;8.20;;;7.10;76.60;;;;;;5121703;27;21194;-59
2022/04/04 01:11:11;;;;;;;15.05;8.18;;;7.10;75.90;;;;;;5123849;27;20023;-59
2022/04/04 01:13:37;;;;;;;14.70;8.35;;;7.10;75.90;;;;;;5104793;27;20023;-60
2022/04/04 01:16:03;;;;;;;20.65;8.40;;;7.10;75.80;;;;;;5105286;27;20419;-59
2022/04/04 01:18:28;;;;;;;20.83;8.68;;;7.10;75.80;;;;;;5124258;27;20053;-59
2022/04/04 01:20:54;;;;;;;20.50;8.77;;;7.10;75.70;;;;;;5123752;27;20030;-60
2022/04/04 01:23:24;;;;;;;17.20;7.75;;;7.00;75.60;;;;;;5123183;27;20556;-59
2022/04/04 01:25:49;;;;;;;16.45;8.13;;;7.00;75.70;;;;;;5123413;27;20039;-60
2022/04/04 01:28:15;;;;;;;17.10;8.63;;;7.00;75.70;;;;;;5121750;27;20046;-59
2022/04/04 01:30:40;;;;;;;14.55;7.68;;;7.00;75.80;;;;;;5109663;27;20086;-59
2022/04/04 01:33:06;;;;;;;11.85;7.80;;;7.00;75.80;;;;;;5099962;28;20438;-60
2022/04/04 01:35:32;;;;;;;22.67;7.75;;;7.00;75.80;;;;;;5103334;28;20034;-60
2022/04/04 01:37:58;;;;;;;13.60;7.50;;;6.90;75.80;;;;;;5084966;28;20570;-59
2022/04/04 01:40:23;;;;;;;12.85;7.65;;;7.00;75.80;;;;;;5084359;28;20144;-60
2022/04/04 01:42:51;;;;;;;17.48;7.68;;;6.90;75.80;;;;;;5084244;28;20031;-60
2022/04/04 01:45:17;;;;;;;13.68;7.15;;;7.00;75.90;;;;;;5084046;28;20039;-59
2022/04/04 01:47:43;;;;;;;11.25;6.70;;;6.90;75.80;;;;;;5065934;28;20035;-62
2022/04/04 01:50:08;;;;;;;17.85;6.95;;;6.90;75.90;;;;;;5081266;28;20044;-59
2022/04/04 01:52:34;;;;;;;14.30;7.50;;;6.90;76.00;;;;;;5080144;28;20050;-60
2022/04/04 01:54:59;;;;;;;15.65;7.22;;;6.90;76.00;;;;;;5082391;28;20074;-59
2022/04/04 01:57:25;;;;;;;14.00;6.82;;;6.90;76.60;;;;;;5100642;28;20433;-60
2022/04/04 01:59:50;;;;;;;13.38;6.78;;;6.90;75.90;;;;;;5083339;28;20034;-60
2022/04/04 02:02:16;;;;;;;10.65;7.00;;;6.90;76.00;;;;;;5067158;28;20120;-59
2022/04/04 02:04:42;;;;;;;10.80;6.88;;;6.90;75.90;;;;;;5100171;28;20042;-59
2022/04/04 02:07:07;;;;;;;16.15;7.15;;;6.90;75.80;;;;;;5064517;28;20035;-59
2022/04/04 02:09:33;;;;;;;22.58;8.50;;;6.90;75.80;;;;;;5080874;28;20082;-59
2022/04/04 02:11:59;;;;;;;31.05;9.98;;;6.90;75.70;;;;;;5079544;28;20051;-59
2022/04/04 02:14:24;;;;;;;21.95;8.50;;;6.90;75.80;;;;;;5082033;28;20043;-59
2022/04/04 02:16:50;;;;;;;16.50;8.27;;;6.80;75.70;;;;;;5100364;28;20494;-60
2022/04/04 02:19:17;;;;;;;20.42;8.23;;;6.80;75.80;;;;;;5079732;28;20031;-60
2022/04/04 02:21:43;;;;;;;18.65;8.07;;;6.80;75.80;;;;;;5101975;28;20168;-59
2022/04/04 02:24:09;;;;;;;17.25;8.15;;;6.80;75.90;;;;;;5101862;27;20107;-59
2022/04/04 02:26:34;;;;;;;16.65;8.23;;;6.80;75.90;;;;;;5082389;28;20034;-60
2022/04/04 02:29:00;;;;;;;25.20;7.97;;;6.80;75.90;;;;;;5080852;28;20039;-59
2022/04/04 02:31:26;;;;;;;28.38;8.98;;;6.80;75.90;;;;;;5099870;28;20049;-60
2022/04/04 02:33:52;;;;;;;19.55;7.63;;;6.80;75.80;;;;;;5101979;27;20019;-59
2022/04/04 02:36:18;;;;;;;18.38;7.90;;;6.80;75.80;;;;;;5118769;27;20366;-60
2022/04/04 02:38:43;;;;;;;16.08;7.57;;;6.80;75.90;;;;;;5119359;28;20034;-59
2022/04/04 02:41:09;;;;;;;15.88;7.88;;;6.80;75.90;;;;;;5120789;28;20127;-60
2022/04/04 02:43:34;;;;;;;25.63;7.93;;;6.80;75.90;;;;;;5120357;27;20614;-60
2022/04/04 02:46:00;;;;;;;17.13;7.22;;;6.70;75.80;;;;;;5104393;28;20031;-59
2022/04/04 02:48:25;;;;;;;17.55;8.00;;;6.70;75.80;;;;;;5120879;27;20102;-60
2022/04/04 02:50:52;;;;;;;18.35;7.15;;;6.70;75.80;;;;;;5121547;27;20039;-59
2022/04/04 02:53:17;;;;;;;18.67;7.78;;;6.70;75.90;;;;;;5121976;27;20152;-60
2022/04/04 02:58:27;;;;;;;14.55;8.02;;;6.70;75.90;;;;;;5103498;28;20472;-60
2022/04/04 03:00:52;;;;;;;12.38;6.93;;;6.70;75.90;;;;;;5102159;28;20043;-60
2022/04/04 03:03:19;;;;;;;12.10;6.95;;;6.70;76.00;;;;;;5101535;28;20045;-59
2022/04/04 03:05:44;;;;;;;20.00;7.45;;;6.70;75.90;;;;;;5120442;27;20024;-59
2022/04/04 03:08:10;;;;;;;11.50;7.63;;;6.70;75.90;;;;;;5121330;28;20034;-59
2022/04/04 03:10:35;;;;;;;15.32;7.13;;;6.70;75.90;;;;;;5122207;28;20034;-60
2022/04/04 03:13:02;;;;;;;16.35;7.00;;;6.70;76.00;;;;;;5118495;27;20027;-59
2022/04/04 03:15:28;;;;;;;13.20;6.72;;;6.70;76.00;;;;;;5121501;28;20466;-60
2022/04/04 03:17:54;;;;;;;16.35;6.53;;;6.60;76.00;;;;;;5085586;27;20115;-60
2022/04/04 03:20:21;;;;;;;12.57;6.82;;;6.70;76.00;;;;;;5101907;28;20026;-60
2022/04/04 03:22:48;;;;;;;14.38;6.50;;;6.70;75.90;;;;;;5100300;28;20451;-60
2022/04/04 03:25:15;;;;;;;11.98;6.72;;;6.60;75.80;;;;;;5084363;27;20462;-60
2022/04/04 03:27:41;;;;;;;12.43;7.45;;;6.60;75.80;;;;;;5101295;28;20019;-59
2022/04/04 03:30:08;;;;;;;16.67;7.00;;;6.60;75.80;;;;;;5098059;28;20040;-60
2022/04/04 03:32:34;;;;;;;21.67;10.73;;;6.60;75.80;;;;;;5098939;28;20101;-60
2022/04/04 03:35:00;;;;;;;17.95;8.63;;;6.60;75.70;;;;;;5119611;28;20458;-59
2022/04/04 03:37:25;;;;;;;16.67;8.95;;;6.60;75.90;;;;;;5092654;28;20439;-59
2022/04/04 03:39:51;;;;;;;15.23;8.30;;;6.50;75.80;;;;;;5105203;27;20502;-59
2022/04/04 03:42:17;;;;;;;14.00;8.32;;;6.50;75.80;;;;;;5106178;27;20149;-59
2022/04/04 03:44:43;;;;;;;18.15;8.65;;;6.50;75.90;;;;;;5100621;28;20035;-59
2022/04/04 03:47:10;;;;;;;21.02;8.80;;;6.50;75.90;;;;;;5090700;27;20078;-59
2022/04/04 03:49:36;;;;;;;13.00;7.70;;;6.50;75.90;;;;;;5123957;27;20506;-59
2022/04/04 03:52:02;;;;;;;11.75;7.55;;;6.50;76.00;;;;;;5107053;27;20038;-59
2022/04/04 03:54:28;;;;;;;15.48;8.13;;;6.50;75.90;;;;;;5125485;27;20367;-59
2022/04/04 03:56:53;;;;;;;16.30;8.63;;;6.50;76.00;;;;;;5118076;27;20039;-59
2022/04/04 03:59:19;;;;;;;15.75;8.23;;;6.50;76.00;;;;;;5122855;27;20229;-60
2022/04/04 04:01:44;;;;;;;16.60;7.65;;;6.40;75.90;;;;;;5112076;27;20050;-59
2022/04/04 04:04:10;;;;;;;11.75;7.18;;;6.40;75.90;;;;;;5123886;27;20361;-60
2022/04/04 04:06:35;;;;;;;12.68;7.38;;;6.50;76.00;;;;;;5092105;28;20067;-60
2022/04/04 04:09:01;;;;;;;15.35;6.57;;;6.40;76.10;;;;;;5085807;27;20739;-60
2022/04/04 04:11:26;;;;;;;10.15;7.10;;;6.40;76.30;;;;;;5094422;28;20043;-60
2022/04/04 04:13:52;;;;;;;10.52;6.88;;;6.40;76.30;;;;;;5104238;27;20038;-60
2022/04/04 04:16:17;;;;;;;14.38;7.55;;;6.40;76.50;;;;;;5119126;27;20028;-60
2022/04/04 04:18:43;;;;;;;12.43;7.05;;;6.40;76.80;;;;;;5121947;27;20515;-60
2022/04/04 04:21:09;;;;;;;12.63;7.55;;;6.40;77.00;;;;;;5094496;27;20467;-59
2022/04/04 04:23:36;;;;;;;10.88;7.07;;;6.40;76.90;;;;;;5101723;27;20035;-60
2022/04/04 04:26:02;;;;;;;12.90;7.40;;;6.40;77.00;;;;;;5121664;27;20436;-60
2022/04/04 04:28:28;;;;;;;12.63;6.72;;;6.40;77.00;;;;;;5118205;27;20066;-59
2022/04/04 04:30:53;;;;;;;14.68;6.65;;;6.40;77.20;;;;;;5103194;27;20039;-59
2022/04/04 04:33:19;;;;;;;14.38;6.97;;;6.40;77.10;;;;;;5110866;27;20110;-60
2022/04/04 04:35:44;;;;;;;11.05;7.10;;;6.40;77.20;;;;;;5097685;27;20027;-60
2022/04/04 04:38:10;;;;;;;14.40;7.47;;;6.40;77.20;;;;;;5103510;27;20027;-59
2022/04/04 04:40:36;;;;;;;20.98;8.15;;;6.40;77.30;;;;;;5124835;27;20498;-60
2022/04/04 04:43:01;;;;;;;23.73;8.63;;;6.40;77.30;;;;;;5114019;27;20085;-60
2022/04/04 04:45:27;;;;;;;24.80;9.93;;;6.40;77.20;;;;;;5115139;27;20038;-60
2022/04/04 04:47:53;;;;;;;20.02;8.88;;;6.40;77.20;;;;;;5123156;27;20537;-60
2022/04/04 04:50:19;;;;;;;33.83;9.15;;;6.30;77.30;;;;;;5102114;27;20039;-59
2022/04/04 04:52:46;;;;;;;33.17;10.57;;;6.30;77.20;;;;;;5107119;27;20047;-59
2022/04/04 04:55:11;;;;;;;73.75;12.52;;;6.30;77.20;;;;;;5094149;27;20081;-59
2022/04/04 04:57:37;;;;;;;88.75;15.05;;;6.30;77.30;;;;;;5092489;27;20067;-60
2022/04/04 05:00:05;;;;;;;55.40;12.93;;;6.20;77.40;;;;;;5111919;27;20301;-59
2022/04/04 05:02:31;;;;;;;50.40;11.93;;;6.20;77.30;;;;;;5107750;27;20723;-60
2022/04/04 05:04:56;;;;;;;40.08;10.52;;;6.20;77.40;;;;;;5093781;28;20064;-60
2022/04/04 05:07:23;;;;;;;54.60;12.63;;;6.20;77.40;;;;;;5084298;27;20023;-59
2022/04/04 05:09:48;;;;;;;45.38;11.30;;;6.20;77.40;;;;;;5122397;27;20023;-59
2022/04/04 05:12:14;;;;;;;36.22;10.10;;;6.20;77.50;;;;;;5112990;27;20125;-59
2022/04/04 05:14:40;;;;;;;32.38;10.90;;;6.10;77.40;;;;;;5116379;27;20060;-59
2022/04/04 05:17:05;;;;;;;44.25;10.82;;;6.10;77.40;;;;;;5113499;27;20122;-59
2022/04/04 05:19:31;;;;;;;34.20;10.82;;;6.10;77.50;;;;;;5104325;27;20136;-60
2022/04/04 05:21:56;;;;;;;35.42;10.20;;;6.10;77.40;;;;;;5107001;27;20071;-60
2022/04/04 05:24:22;;;;;;;36.90;10.30;;;6.10;77.50;;;;;;5091809;27;20051;-59
2022/04/04 05:26:48;;;;;;;31.25;10.05;;;6.20;77.70;;;;;;5109081;27;20730;-60
2022/04/04 05:29:17;;;;;;;33.90;10.05;;;6.10;77.60;;;;;;5108610;27;20073;-59
2022/04/04 05:31:43;;;;;;;34.70;10.05;;;6.10;77.70;;;;;;5099356;27;20058;-59
2022/04/04 05:34:08;;;;;;;31.65;10.57;;;6.10;77.80;;;;;;5105185;27;20386;-60
2022/04/04 05:36:34;;;;;;;36.20;9.90;;;6.00;77.90;;;;;;5103092;27;20039;-60
2022/04/04 05:39:00;;;;;;;28.30;10.40;;;6.00;77.90;;;;;;5101845;27;20587;-60
2022/04/04 05:41:27;;;;;;;38.47;10.15;;;6.00;78.00;;;;;;5085999;27;20035;-59
2022/04/04 05:43:53;;;;;;;53.20;10.75;;;6.00;78.00;;;;;;5119555;27;20054;-59
2022/04/04 05:46:18;;;;;;;37.50;10.13;;;6.00;78.10;;;;;;5095462;27;20057;-60
2022/04/04 05:48:44;;;;;;;35.13;9.45;;;6.00;78.10;;;;;;5116585;27;20121;-60
2022/04/04 05:51:10;;;;;;;33.05;10.63;;;6.00;78.20;;;;;;5106250;27;20108;-60
2022/04/04 05:53:36;;;;;;;33.70;10.40;;;6.00;78.20;;;;;;5086276;27;20070;-59
2022/04/04 05:56:02;;;;;;;35.33;10.00;;;6.00;78.30;;;;;;5088759;27;20474;-60
2022/04/04 05:58:27;;;;;;;33.20;9.77;;;6.00;78.30;;;;;;5081619;27;20078;-60
2022/04/04 06:00:53;;;;;;;39.38;9.43;;;5.90;78.30;;;;;;5101682;27;20016;-60
2022/04/04 06:03:19;;;;;;;40.47;9.80;;;5.90;78.30;;;;;;5118425;27;20482;-60
2022/04/04 06:05:46;;;;;;;35.60;9.38;;;5.90;78.20;;;;;;5101778;27;20031;-60
2022/04/04 06:08:12;;;;;;;34.70;10.52;;;5.90;78.20;;;;;;5107672;27;20061;-60
2022/04/04 06:10:37;;;;;;;36.90;9.55;;;5.90;78.20;;;;;;5096197;27;20043;-60
2022/04/04 06:13:03;;;;;;;22.00;8.43;;;5.90;78.20;;;;;;5098503;27;20027;-60
2022/04/04 06:15:28;;;;;;;39.38;9.50;;;5.90;78.10;;;;;;5120613;27;20031;-60
2022/04/04 06:17:54;;;;;;;21.13;8.25;;;5.90;78.10;;;;;;5101568;27;20388;-60
2022/04/04 06:20:19;;;;;;;29.08;9.25;;;5.90;78.10;;;;;;5118751;27;20073;-59
2022/04/04 06:22:45;;;;;;;28.10;8.55;;;5.90;78.00;;;;;;5118701;27;20023;-60
2022/04/04 06:25:14;;;;;;;29.52;8.68;;;5.90;78.10;;;;;;5081484;27;20391;-60
2022/04/04 06:27:40;;;;;;;20.48;8.80;;;5.90;78.00;;;;;;5098788;28;20062;-60
2022/04/04 06:30:07;;;;;;;27.92;9.18;;;5.90;77.90;;;;;;5062788;28;20494;-59
2022/04/04 06:32:33;;;;;;;25.50;9.45;;;5.90;77.80;;;;;;5061335;28;20152;-60
2022/04/04 06:34:59;;;;;;;30.50;9.32;;;5.90;77.80;;;;;;5093190;28;20063;-60
2022/04/04 06:37:24;;;;;;;26.75;8.90;;;5.90;77.70;;;;;;5101108;28;20024;-60
2022/04/04 06:39:50;;;;;;;25.17;9.13;;;5.90;77.80;;;;;;5094116;28;20027;-63
2022/04/04 06:42:15;;;;;;;24.67;9.43;;;5.90;77.80;;;;;;5080849;28;20048;-60
2022/04/04 06:44:42;;;;;;;27.92;8.73;;;5.90;77.70;;;;;;5043494;28;20042;-64
2022/04/04 06:47:08;;;;;;;22.98;8.25;;;5.90;77.70;;;;;;5078717;28;20028;-60
2022/04/04 06:49:34;;;;;;;26.13;9.15;;;5.90;77.70;;;;;;5058144;28;20028;-62
2022/04/04 06:51:59;;;;;;;24.35;8.27;;;5.90;77.70;;;;;;5094256;28;20073;-60
2022/04/04 06:54:25;;;;;;;21.00;8.27;;;5.90;77.70;;;;;;5091353;28;20032;-59
2022/04/04 06:56:52;;;;;;;24.40;8.73;;;5.90;77.70;;;;;;5098050;28;20949;-60
2022/04/04 06:59:17;;;;;;;22.17;7.47;;;5.90;77.70;;;;;;5081314;28;20497;-60
2022/04/04 07:01:43;;;;;;;20.55;8.32;;;5.90;77.70;;;;;;5074426;28;20032;-60
2022/04/04 07:04:10;;;;;;;22.98;7.97;;;5.90;77.60;;;;;;5096845;28;20395;-60
2022/04/04 07:06:36;;;;;;;27.23;8.18;;;5.90;77.70;;;;;;5078344;28;20121;-60
2022/04/04 07:09:02;;;;;;;21.48;7.88;;;5.90;77.70;;;;;;5064889;28;20035;-60
2022/04/04 07:11:29;;;;;;;19.33;7.45;;;5.90;77.70;;;;;;5074698;28;20518;-60
2022/04/04 07:13:55;;;;;;;21.02;8.00;;;5.80;78.20;;;;;;5058913;28;20048;-59
2022/04/04 07:16:20;;;;;;;17.05;8.32;;;5.80;77.60;;;;;;5095666;28;20046;-60
2022/04/04 07:18:47;;;;;;;18.95;7.30;;;5.80;77.60;;;;;;5093711;28;20152;-60
2022/04/04 07:21:12;;;;;;;18.40;8.13;;;5.80;77.60;;;;;;5078710;28;20056;-60
2022/04/04 07:23:38;;;;;;;16.55;6.85;;;5.80;77.60;;;;;;5094271;28;20076;-60
2022/04/04 07:26:03;;;;;;;16.55;7.72;;;5.80;77.50;;;;;;5090630;28;20061;-60
2022/04/04 07:28:29;;;;;;;20.40;7.40;;;5.80;77.50;;;;;;5090779;28;20108;-60
2022/04/04 07:30:55;;;;;;;25.70;8.43;;;5.80;77.50;;;;;;5069710;28;20047;-61
2022/04/04 07:33:20;;;;;;;17.98;7.97;;;5.80;77.50;;;;;;5098075;28;20090;-60
2022/04/04 07:35:46;;;;;;;15.52;7.00;;;5.80;77.40;;;;;;5102107;27;20043;-61
2022/04/04 07:38:11;;;;;;;22.70;7.63;;;5.80;77.40;;;;;;5077784;28;20063;-60
2022/04/04 07:40:37;;;;;;;25.92;8.05;;;5.80;77.40;;;;;;5097107;27;20453;-61
2022/04/04 07:43:03;;;;;;;27.88;8.40;;;5.80;77.40;;;;;;5100848;27;20035;-60
2022/04/04 07:45:30;;;;;;;18.02;8.40;;;5.80;77.50;;;;;;5099342;27;20176;-60
2022/04/04 07:47:56;;;;;;;25.23;8.23;;;5.80;77.60;;;;;;5083887;28;20391;-60
2022/04/04 07:50:21;;;;;;;20.10;7.88;;;5.80;77.60;;;;;;5101565;27;20031;-60
2022/04/04 07:52:47;;;;;;;28.35;9.25;;;5.80;77.70;;;;;;5073733;28;20028;-60
2022/04/04 07:55:12;;;;;;;22.35;8.02;;;5.80;77.60;;;;;;5084931;28;20035;-60
2022/04/04 07:57:38;;;;;;;34.42;8.45;;;5.80;77.70;;;;;;5095667;27;20050;-60
2022/04/04 08:00:07;;;;;;;24.48;9.18;;;5.80;77.60;;;;;;5066070;28;20051;-60
2022/04/04 08:02:33;;;;;;;18.75;8.73;;;5.80;77.60;;;;;;5059101;28;20115;-60
2022/04/04 08:04:58;;;;;;;18.15;8.48;;;5.80;77.50;;;;;;5079448;28;20024;-60
2022/04/04 08:07:24;;;;;;;24.05;10.05;;;5.80;77.50;;;;;;5104413;27;20568;-60
2022/04/04 08:09:49;;;;;;;21.45;8.50;;;5.80;77.50;;;;;;5084779;28;20132;-60
2022/04/04 08:12:15;;;;;;;24.02;9.43;;;5.80;77.50;;;;;;5074638;28;20012;-60
2022/04/04 08:14:40;;;;;;;25.23;8.38;;;5.80;77.40;;;;;;5052562;28;20039;-60
2022/04/04 08:17:06;;;;;;;32.22;8.88;;;5.80;77.40;;;;;;5096144;28;20043;-60
2022/04/04 08:19:32;;;;;;;122.15;18.48;;;5.80;77.30;;;;;;5063724;27;20114;-60
2022/04/04 08:21:58;;;;;;;110.13;18.15;;;5.90;77.50;;;;;;5066828;28;20054;-60
2022/04/04 08:24:23;;;;;;;93.13;15.98;;;5.90;77.60;;;;;;5097716;28;20063;-60
2022/04/04 08:26:49;;;;;;;89.28;14.70;;;5.80;77.60;;;;;;5082119;28;20027;-60
2022/04/04 08:29:15;;;;;;;57.00;11.90;;;5.90;77.60;;;;;;5069239;28;20016;-60
2022/04/04 08:31:40;;;;;;;51.92;10.98;;;5.90;77.50;;;;;;5097959;27;20066;-60
2022/04/04 08:34:06;;;;;;;48.25;11.80;;;5.90;77.50;;;;;;5117059;27;20076;-60
2022/04/04 08:36:31;;;;;;;45.72;11.70;;;5.90;77.50;;;;;;5103263;27;20015;-60
2022/04/04 08:38:57;;;;;;;48.75;11.55;;;5.90;77.40;;;;;;5112062;27;20096;-60
2022/04/04 08:41:22;;;;;;;45.47;11.68;;;5.90;77.30;;;;;;5117756;27;20297;-60
2022/04/04 08:43:51;;;;;;;48.55;11.23;;;5.90;77.20;;;;;;5086439;27;20034;-60
2022/04/04 08:46:17;;;;;;;36.67;10.30;;;5.90;77.00;;;;;;5101564;27;20105;-61
2022/04/04 08:48:43;;;;;;;41.25;10.90;;;6.00;76.90;;;;;;5122566;27;20031;-60
2022/04/04 08:51:08;;;;;;;53.97;11.18;;;6.00;76.90;;;;;;5104684;27;20465;-60
2022/04/04 08:53:35;;;;;;;84.30;13.77;;;6.00;76.90;;;;;;5099060;27;20073;-60
2022/04/04 08:56:02;;;;;;;37.30;11.75;;;6.00;77.40;;;;;;5086098;27;20119;-60
2022/04/04 08:58:27;;;;;;;52.03;12.32;;;6.00;77.10;;;;;;5095816;27;20037;-60
2022/04/04 09:00:53;;;;;;;56.67;11.32;;;6.00;76.90;;;;;;5074717;27;20069;-60
2022/04/04 09:03:20;;;;;;;47.25;11.25;;;6.00;76.90;;;;;;5098758;27;20517;-60
2022/04/04 09:05:53;;;;;;;48.38;12.00;;;6.00;77.00;;;;;;5118649;27;20019;-60
2022/04/04 09:08:19;;;;;;;40.90;12.07;;;6.10;77.00;;;;;;5087394;27;20062;-60
2022/04/04 09:10:45;;;;;;;61.88;12.60;;;6.00;77.00;;;;;;5071410;27;20035;-60
2022/04/04 09:13:15;;;;;;;34.33;11.40;;;6.10;77.00;;;;;;5121557;27;20047;-60
2022/04/04 09:15:57;;;;;;;39.15;10.40;;;6.10;76.80;;;;;;5099543;27;20032;-60
2022/04/04 09:18:40;;;;;;;76.88;12.68;;;6.10;76.60;;;;;;5119457;27;20026;-60
2022/04/04 09:21:12;;;;;;;40.65;10.77;;;6.10;76.60;;;;;;5083178;27;20030;-61
2022/04/04 09:23:47;;;;;;;46.63;11.55;;;6.10;76.50;;;;;;5101936;27;20035;-60
2022/04/04 09:26:30;;;;;;;45.40;11.27;;;6.10;76.40;;;;;;5118321;27;20085;-60
2022/04/04 09:29:06;;;;;;;54.63;12.63;;;6.20;76.40;;;;;;5114134;27;20403;-61
2022/04/04 09:31:32;;;;;;;69.70;12.63;;;6.20;76.40;;;;;;5090467;27;20544;-60
2022/04/04 09:34:01;;;;;;;81.88;13.45;;;6.20;76.40;;;;;;5110647;27;20047;-60
2022/04/04 09:36:27;;;;;;;60.47;12.30;;;6.20;76.40;;;;;;5112881;27;21332;-60
2022/04/04 09:39:08;;;;;;;49.70;12.20;;;6.30;76.40;;;;;;5099118;27;20020;-60
2022/04/04 09:41:33;;;;;;;62.17;12.77;;;6.30;76.30;;;;;;5109682;27;20153;-59
2022/04/04 09:44:00;;;;;;;61.40;11.85;;;6.30;76.00;;;;;;5077603;27;20596;-60
2022/04/04 09:46:34;;;;;;;61.13;13.60;;;6.40;76.00;;;;;;5099441;27;20080;-60
2022/04/04 09:49:06;;;;;;;73.43;14.15;;;6.40;76.00;;;;;;5083671;27;20027;-60
2022/04/04 09:51:54;;;;;;;73.10;12.30;;;6.50;76.30;;;;;;5078084;27;20080;-60
2022/04/04 09:54:22;;;;;;;82.63;13.45;;;6.60;76.00;;;;;;5078948;28;20112;-60
2022/04/04 09:56:50;;;;;;;94.85;15.68;;;6.50;75.90;;;;;;5101668;27;20764;-61
2022/04/04 09:59:16;;;;;;;76.30;15.95;;;6.50;75.90;;;;;;5090216;28;20662;-60
2022/04/04 10:01:43;;;;;;;76.38;14.95;;;6.60;75.90;;;;;;5100811;27;20092;-63
2022/04/04 10:04:09;;;;;;;99.45;16.17;;;6.60;75.80;;;;;;5112602;27;20044;-60
2022/04/04 10:06:34;;;;;;;100.97;17.58;;;6.60;75.70;;;;;;5100554;27;20039;-61
2022/04/04 10:09:01;;;;;;;75.22;14.27;;;6.70;75.70;;;;;;5115652;27;20207;-60
2022/04/04 10:11:27;;;;;;;94.22;15.50;;;6.70;75.50;;;;;;5068434;27;20027;-61
2022/04/04 10:13:53;;;;;;;89.90;14.75;;;6.70;75.50;;;;;;5093022;27;20027;-61
2022/04/04 10:16:19;;;;;;;74.38;14.95;;;6.80;75.50;;;;;;5096127;27;20047;-60
2022/04/04 10:18:46;;;;;;;95.78;15.93;;;6.80;75.60;;;;;;5112667;27;20031;-60
2022/04/04 10:21:12;;;;;;;84.93;15.65;;;6.80;75.80;;;;;;5104086;27;20469;-60
2022/04/04 10:23:37;;;;;;;92.63;15.43;;;6.80;75.60;;;;;;5102925;27;20042;-61
2022/04/04 10:26:03;;;;;;;107.35;16.13;;;6.90;75.50;;;;;;5083515;27;20473;-61
2022/04/04 10:28:30;;;;;;;63.65;15.70;;;6.90;75.40;;;;;;5079533;27;20034;-61
2022/04/04 10:31:15;;;;;;;77.80;15.65;;;7.00;75.20;;;;;;5101785;28;20112;-61
2022/04/04 10:33:41;;;;;;;99.15;16.67;;;7.00;75.30;;;;;;5099419;27;20042;-61
2022/04/04 10:36:08;;;;;;;83.82;15.93;;;7.00;75.30;;;;;;5091753;28;21308;-61
2022/04/04 10:38:38;;;;;;;137.45;17.15;;;7.10;75.10;;;;;;5114077;27;20448;-61
2022/04/04 10:41:07;;;;;;;100.43;16.58;;;7.10;74.90;;;;;;5097525;28;20043;-61
2022/04/04 10:43:37;;;;;;;91.18;15.35;;;7.20;74.80;;;;;;5094338;28;20043;-61
2022/04/04 10:46:05;;;;;;;78.18;15.18;;;7.20;74.50;;;;;;5091472;28;20050;-60
2022/04/04 10:48:31;;;;;;;84.10;15.50;;;7.30;74.50;;;;;;5078153;27;20024;-61
2022/04/04 10:51:09;;;;;;;93.75;14.68;;;7.30;74.40;;;;;;5088521;27;20051;-62
2022/04/04 10:53:35;;;;;;;98.53;14.70;;;7.40;74.30;;;;;;5085507;27;20027;-61
2022/04/04 10:56:01;;;;;;;67.97;15.10;;;7.40;74.20;;;;;;5098238;27;20019;-61
2022/04/04 10:58:27;;;;;;;76.20;15.40;;;7.40;74.70;;;;;;5083063;27;20446;-61
2022/04/04 11:01:15;;;;;;;85.03;14.57;;;7.50;74.20;;;;;;5120908;27;20033;-60
2022/04/04 11:03:41;;;;;;;63.75;13.40;;;7.50;74.10;;;;;;5094548;27;20015;-60
2022/04/04 11:09:02;;;;;;;83.93;14.57;;;7.50;73.80;;;;;;5097784;28;20230;-60
2022/04/04 11:11:50;;;;;;;71.50;14.68;;;7.60;73.70;;;;;;5081346;27;20120;-60
2022/04/04 11:14:16;;;;;;;62.17;13.48;;;7.60;73.70;;;;;;5117197;27;20416;-61
2022/04/04 11:17:06;;;;;;;68.93;14.13;;;7.70;73.60;;;;;;5114571;27;20060;-61
2022/04/04 11:19:57;;;;;;;63.58;13.63;;;7.70;73.20;;;;;;5107808;27;20098;-60
2022/04/04 11:22:27;;;;;;;59.00;13.20;;;7.80;73.10;;;;;;5105649;27;20490;-60
2022/04/04 11:24:55;;;;;;;47.08;12.13;;;7.80;73.10;;;;;;5105543;27;20024;-61
2022/04/04 11:27:21;;;;;;;54.17;11.90;;;7.90;72.90;;;;;;5086627;27;20023;-61
2022/04/04 11:29:47;;;;;;;53.60;14.35;;;7.90;72.90;;;;;;5115812;27;20062;-61
2022/04/04 11:32:16;;;;;;;57.47;11.70;;;8.00;73.00;;;;;;5089840;28;20608;-61
2022/04/04 11:34:42;;;;;;;67.35;13.82;;;8.10;72.90;;;;;;5100871;28;20556;-61
2022/04/04 11:37:23;;;;;;;42.13;12.40;;;8.10;72.30;;;;;;5092567;28;20023;-61
2022/04/04 11:39:49;;;;;;;47.70;11.85;;;8.20;71.80;;;;;;5091571;28;20054;-60
2022/04/04 11:42:15;;;;;;;49.35;12.02;;;8.30;71.90;;;;;;5070592;28;20491;-61
2022/04/04 11:44:47;;;;;;;51.28;12.77;;;8.30;72.00;;;;;;5076125;28;20129;-61
2022/04/04 11:47:13;;;;;;;36.38;10.75;;;8.30;71.90;;;;;;5083602;28;20091;-60
2022/04/04 11:49:40;;;;;;;48.88;12.18;;;8.30;71.70;;;;;;5096921;28;20047;-61
2022/04/04 11:52:06;;;;;;;52.05;11.68;;;8.40;71.80;;;;;;5074830;28;20164;-61
2022/04/04 11:54:39;;;;;;;42.45;10.50;;;8.40;71.80;;;;;;5062796;28;20050;-62
2022/04/04 11:57:05;;;;;;;37.78;11.50;;;8.40;71.90;;;;;;5097999;27;20031;-62
2022/04/04 11:59:36;;;;;;;35.38;10.73;;;8.50;72.00;;;;;;5075635;28;20043;-61
2022/04/04 12:02:07;;;;;;;43.63;11.00;;;8.50;71.70;;;;;;5081289;27;20401;-62
2022/04/04 12:04:34;;;;;;;25.48;9.77;;;8.60;71.50;;;;;;5086114;28;20035;-60
2022/04/04 12:07:01;;;;;;;31.70;10.57;;;8.40;71.10;;;;;;5082402;28;20030;-61
2022/04/04 12:09:36;;;;;;;30.17;8.85;;;8.70;71.40;;;;;;5095116;27;20519;-60
2022/04/04 12:12:04;;;;;;;31.25;9.73;;;8.70;71.10;;;;;;5078336;28;20039;-61
2022/04/04 12:14:39;;;;;;;37.35;9.93;;;8.80;71.10;;;;;;5096919;28;20625;-61
2022/04/04 12:17:05;;;;;;;28.95;9.38;;;8.80;70.90;;;;;;5098168;27;20032;-60
2022/04/04 12:19:31;;;;;;;32.97;9.77;;;8.90;70.70;;;;;;5074103;28;20036;-61
2022/04/04 12:21:57;;;;;;;33.42;9.73;;;9.00;70.50;;;;;;5072239;28;20027;-61
2022/04/04 12:27:14;;;;;;;38.05;9.75;;;9.10;71.00;;;;;;5079236;27;20039;-61
2022/04/04 12:29:43;;;;;;;51.28;10.27;;;9.20;70.40;;;;;;5091109;28;20119;-61
2022/04/04 12:32:16;;;;;;;36.22;9.60;;;9.20;70.30;;;;;;5078446;27;20026;-60
2022/04/04 12:34:54;;;;;;;33.70;9.05;;;9.30;70.20;;;;;;5098992;27;20478;-61
2022/04/04 12:37:20;;;;;;;40.65;9.88;;;9.30;70.00;;;;;;5101429;27;20044;-61
2022/04/04 12:39:49;;;;;;;47.55;10.95;;;9.30;70.20;;;;;;5104000;27;20091;-60
2022/04/04 12:42:14;;;;;;;54.83;10.30;;;9.40;70.10;;;;;;5116090;27;20208;-61
2022/04/04 12:44:40;;;;;;;29.95;10.27;;;9.50;69.50;;;;;;5120193;27;20121;-62
2022/04/04 12:47:09;;;;;;;34.03;10.88;;;9.50;69.70;;;;;;5085448;27;20011;-61
2022/04/04 12:49:35;;;;;;;57.58;11.52;;;9.50;69.50;;;;;;5117762;27;20043;-61